Time;durP1;ratioP1;P1;durP2;ratioP2;P2;SDS_P1;SDS_P2;PMS_P1;PMS_P2;Temp;Humidity;BMP_temperature;BMP_pressure;BME280_temperature;BME280_humidity;BME280_pressure;Samples;Min_cycle;Max_cycle;Signal;HPM_P1;HPM_P2
2022/03/31 00:00:21;;;;;;;23.53;17.10;;;8.40;99.90;;;;;;5000122;28;20727;-95
2022/03/31 00:02:47;;;;;;;21.70;16.80;;;8.30;99.90;;;;;;4986183;28;20534;-93
2022/03/31 00:05:13;;;;;;;20.83;15.67;;;8.20;99.90;;;;;;4981757;28;20543;-93
2022/03/31 00:07:52;;;;;;;26.07;17.50;;;8.20;99.90;;;;;;4980373;28;20184;-94
2022/03/31 00:10:26;;;;;;;21.17;16.27;;;8.30;99.90;;;;;;4985786;28;20460;-94
2022/03/31 00:12:53;;;;;;;24.00;17.00;;;8.30;99.90;;;;;;4982136;28;20555;-94
2022/03/31 00:15:20;;;;;;;29.43;17.97;;;8.30;99.90;;;;;;4983660;28;20471;-95
2022/03/31 00:17:46;;;;;;;27.30;17.90;;;8.30;99.90;;;;;;4983042;28;21904;-95
2022/03/31 00:20:12;;;;;;;25.27;17.60;;;8.30;99.90;;;;;;4986567;28;20992;-94
2022/03/31 00:22:39;;;;;;;27.60;17.70;;;8.20;99.90;;;;;;4983332;28;20183;-94
2022/03/31 00:25:08;;;;;;;25.83;18.30;;;8.20;99.90;;;;;;4981559;28;20219;-94
2022/03/31 00:27:40;;;;;;;26.70;18.23;;;8.20;99.90;;;;;;4982867;28;20452;-95
2022/03/31 00:30:08;;;;;;;22.83;17.90;;;8.10;99.90;;;;;;4988740;28;20988;-94
2022/03/31 00:32:34;;;;;;;24.10;17.30;;;8.10;99.90;;;;;;4985980;28;20456;-93
2022/03/31 00:35:01;;;;;;;26.40;17.97;;;8.10;99.90;;;;;;4985038;28;20452;-94
2022/03/31 00:37:27;;;;;;;24.80;18.33;;;8.00;99.90;;;;;;4986740;28;20450;-95
2022/03/31 00:39:53;;;;;;;25.60;17.10;;;7.90;99.90;;;;;;4980273;28;20561;-94
2022/03/31 00:42:19;;;;;;;28.47;18.90;;;7.80;99.90;;;;;;4983786;28;20447;-94
2022/03/31 00:44:45;;;;;;;29.97;19.17;;;7.70;99.90;;;;;;4992508;28;20974;-93
2022/03/31 00:47:10;;;;;;;27.30;19.37;;;7.70;99.90;;;;;;4984488;28;20185;-94
2022/03/31 00:49:36;;;;;;;24.33;17.40;;;7.60;99.90;;;;;;4989991;28;20196;-94
2022/03/31 00:52:02;;;;;;;24.10;17.00;;;7.70;99.90;;;;;;4985185;28;20204;-94
2022/03/31 00:54:28;;;;;;;27.77;18.10;;;7.60;99.90;;;;;;4987776;28;20638;-94
2022/03/31 00:56:56;;;;;;;26.90;18.10;;;7.60;99.90;;;;;;4980503;28;20452;-94
2022/03/31 00:59:21;;;;;;;27.60;19.40;;;7.50;99.90;;;;;;4987746;28;20507;-94
2022/03/31 01:01:48;;;;;;;26.30;18.50;;;7.50;99.90;;;;;;4985684;28;20491;-95
2022/03/31 01:04:15;;;;;;;23.97;17.87;;;7.60;99.90;;;;;;4983687;28;20185;-93
2022/03/31 01:06:44;;;;;;;26.90;17.70;;;7.50;99.90;;;;;;4983843;28;20580;-94
2022/03/31 01:09:12;;;;;;;25.03;17.73;;;7.50;99.90;;;;;;4983354;28;20451;-94
2022/03/31 01:11:39;;;;;;;24.13;17.33;;;7.50;99.90;;;;;;4984161;28;20521;-94
2022/03/31 01:14:06;;;;;;;24.80;16.77;;;7.50;99.90;;;;;;4981539;28;20454;-94
2022/03/31 01:16:32;;;;;;;23.27;17.67;;;7.50;99.90;;;;;;4982842;28;20471;-93
2022/03/31 01:19:02;;;;;;;24.03;16.53;;;7.50;99.90;;;;;;4991128;28;20498;-95
2022/03/31 01:21:27;;;;;;;24.83;18.30;;;7.60;99.90;;;;;;5001963;28;20426;-95
2022/03/31 01:23:55;;;;;;;23.47;16.93;;;7.60;99.90;;;;;;4989494;28;20458;-95
2022/03/31 01:26:21;;;;;;;22.77;16.20;;;7.50;99.90;;;;;;4983011;28;20259;-94
2022/03/31 01:28:47;;;;;;;24.80;17.03;;;7.50;99.90;;;;;;4985291;28;20482;-94
2022/03/31 01:31:13;;;;;;;23.40;16.60;;;7.30;99.90;;;;;;4994094;28;20468;-94
2022/03/31 01:33:40;;;;;;;22.93;17.60;;;7.30;99.90;;;;;;4973051;28;20244;-95
2022/03/31 01:36:07;;;;;;;20.63;15.73;;;7.30;99.90;;;;;;4994163;28;20843;-95
2022/03/31 01:38:33;;;;;;;22.40;15.67;;;7.40;99.90;;;;;;4988102;28;20487;-93
2022/03/31 01:40:59;;;;;;;20.27;15.60;;;7.50;99.90;;;;;;4988069;28;21186;-94
2022/03/31 01:43:26;;;;;;;22.03;15.80;;;7.60;99.90;;;;;;4988510;28;20524;-93
2022/03/31 01:45:55;;;;;;;19.03;14.67;;;7.70;99.90;;;;;;4994642;28;20454;-95
2022/03/31 01:48:21;;;;;;;20.70;15.60;;;7.80;99.90;;;;;;4994670;28;20694;-95
2022/03/31 01:50:47;;;;;;;19.43;15.23;;;7.90;99.90;;;;;;4992047;28;20500;-95
2022/03/31 01:53:14;;;;;;;19.80;14.97;;;7.90;99.90;;;;;;4996040;28;20453;-95
2022/03/31 01:55:40;;;;;;;25.00;16.30;;;7.80;99.90;;;;;;4987510;28;20195;-94
2022/03/31 01:58:07;;;;;;;21.03;14.80;;;7.80;99.90;;;;;;4986558;28;20480;-94
2022/03/31 02:00:33;;;;;;;23.30;16.27;;;7.60;99.90;;;;;;4989363;28;20452;-94
2022/03/31 02:02:59;;;;;;;21.90;15.90;;;7.50;99.90;;;;;;4994424;28;20455;-93
2022/03/31 02:05:28;;;;;;;24.67;17.20;;;7.50;99.90;;;;;;4986151;28;20451;-94
2022/03/31 02:07:57;;;;;;;21.70;16.23;;;7.40;99.90;;;;;;4986071;28;20444;-94
2022/03/31 02:10:25;;;;;;;20.53;15.77;;;7.40;99.90;;;;;;4987251;28;20451;-93
2022/03/31 02:12:53;;;;;;;27.00;17.70;;;7.20;99.90;;;;;;4984283;28;20448;-94
2022/03/31 02:15:21;;;;;;;25.03;15.70;;;7.20;99.90;;;;;;4987815;28;20483;-93
2022/03/31 02:17:48;;;;;;;20.33;14.63;;;7.20;99.90;;;;;;4990323;28;20441;-93
2022/03/31 02:20:14;;;;;;;20.17;15.47;;;7.40;99.90;;;;;;4988358;28;20451;-94
2022/03/31 02:22:39;;;;;;;20.20;15.50;;;7.50;99.90;;;;;;5000876;28;20451;-93
2022/03/31 02:25:08;;;;;;;19.47;14.77;;;7.70;99.90;;;;;;4989300;28;20177;-92
2022/03/31 02:27:38;;;;;;;18.50;14.37;;;7.50;99.90;;;;;;4986435;28;20182;-94
2022/03/31 02:30:07;;;;;;;17.93;14.30;;;7.50;99.90;;;;;;5000144;28;20435;-94
2022/03/31 02:32:34;;;;;;;19.60;15.07;;;7.60;99.90;;;;;;5015027;28;20443;-96
2022/03/31 02:35:00;;;;;;;19.10;14.53;;;7.70;99.90;;;;;;4998617;28;20632;-93
2022/03/31 02:37:25;;;;;;;19.30;15.17;;;7.70;99.90;;;;;;5001606;28;20959;-95
2022/03/31 02:39:51;;;;;;;18.70;14.60;;;7.80;99.90;;;;;;5003697;28;20302;-94
2022/03/31 02:42:17;;;;;;;18.97;14.63;;;7.90;99.90;;;;;;5002405;28;20210;-95
2022/03/31 02:44:44;;;;;;;18.67;14.37;;;7.80;99.90;;;;;;4976095;28;20550;-95
2022/03/31 02:47:10;;;;;;;18.13;13.87;;;7.70;99.90;;;;;;5002687;28;20184;-95
2022/03/31 02:49:40;;;;;;;19.53;14.17;;;7.70;99.90;;;;;;4996595;28;20435;-95
2022/03/31 02:52:23;;;;;;;19.37;14.27;;;7.70;99.90;;;;;;4980681;28;20475;-94
2022/03/31 02:57:33;;;;;;;17.10;13.73;;;7.70;99.90;;;;;;5005581;28;20193;-94
2022/03/31 03:00:00;;;;;;;18.53;14.87;;;7.70;99.90;;;;;;4990197;28;20474;-95
2022/03/31 03:02:26;;;;;;;19.33;14.97;;;7.70;99.90;;;;;;4986622;28;20185;-94
2022/03/31 03:04:52;;;;;;;19.47;14.07;;;7.60;99.90;;;;;;4978800;28;20464;-94
2022/03/31 03:07:26;;;;;;;21.97;16.40;;;7.60;99.90;;;;;;4987621;28;20444;-95
2022/03/31 03:09:52;;;;;;;21.37;15.60;;;7.70;99.90;;;;;;4987034;28;20188;-95
2022/03/31 03:12:21;;;;;;;20.53;15.93;;;7.70;99.90;;;;;;4986268;28;21016;-95
2022/03/31 03:14:46;;;;;;;21.03;15.47;;;7.70;99.90;;;;;;4986296;28;20463;-96
2022/03/31 03:17:13;;;;;;;21.33;16.70;;;7.70;99.90;;;;;;4978742;28;20444;-93
2022/03/31 03:19:40;;;;;;;20.10;14.80;;;7.80;99.90;;;;;;4989729;28;20214;-94
2022/03/31 03:22:06;;;;;;;20.40;15.07;;;7.80;99.90;;;;;;4986589;28;20441;-95
2022/03/31 03:24:32;;;;;;;20.13;15.37;;;7.80;99.90;;;;;;5005670;28;20450;-94
2022/03/31 03:27:06;;;;;;;19.10;14.60;;;7.80;99.90;;;;;;5008497;28;20434;-93
2022/03/31 03:29:33;;;;;;;20.60;14.53;;;7.80;99.90;;;;;;4986071;28;20437;-94
2022/03/31 03:32:07;;;;;;;19.40;15.27;;;7.90;99.90;;;;;;4986603;28;20465;-94
2022/03/31 03:34:34;;;;;;;18.83;14.80;;;7.90;99.90;;;;;;4986315;28;20958;-95
2022/03/31 03:37:00;;;;;;;21.00;17.10;;;7.80;99.90;;;;;;5008625;28;20514;-95
2022/03/31 03:39:26;;;;;;;21.17;15.57;;;7.70;99.90;;;;;;4983966;28;20485;-94
2022/03/31 03:41:51;;;;;;;21.17;16.50;;;7.60;99.90;;;;;;4988278;28;20182;-94
2022/03/31 03:44:17;;;;;;;19.80;14.67;;;7.70;99.90;;;;;;4986517;28;20177;-95
2022/03/31 03:46:48;;;;;;;18.50;15.00;;;7.60;99.90;;;;;;4971817;28;20197;-95
2022/03/31 03:49:25;;;;;;;21.90;15.87;;;7.50;99.90;;;;;;4997816;28;20196;-95
2022/03/31 03:51:53;;;;;;;20.10;14.27;;;7.50;99.90;;;;;;4992977;28;20478;-93
2022/03/31 03:54:24;;;;;;;21.40;15.03;;;7.50;99.90;;;;;;4983200;28;20494;-94
2022/03/31 03:56:50;;;;;;;21.17;15.13;;;7.50;99.90;;;;;;5001481;28;20210;-95
2022/03/31 03:59:15;;;;;;;21.20;16.17;;;7.50;99.90;;;;;;4983171;28;20552;-94
2022/03/31 04:01:41;;;;;;;20.37;14.90;;;7.40;99.90;;;;;;4984634;28;20229;-95
2022/03/31 04:04:06;;;;;;;17.50;14.60;;;7.50;99.90;;;;;;4985245;28;20283;-95
2022/03/31 04:06:32;;;;;;;20.17;15.27;;;7.60;99.90;;;;;;4987236;28;20217;-95
2022/03/31 04:08:58;;;;;;;17.67;14.00;;;7.60;99.90;;;;;;4991326;28;20593;-94
2022/03/31 04:11:23;;;;;;;21.53;14.80;;;7.60;99.90;;;;;;4985697;28;20189;-93
2022/03/31 04:13:49;;;;;;;20.10;14.50;;;7.50;99.90;;;;;;4986529;28;20288;-95
2022/03/31 04:16:15;;;;;;;17.30;13.97;;;7.50;99.90;;;;;;4984533;28;20189;-93
2022/03/31 04:18:43;;;;;;;18.23;14.40;;;7.40;99.90;;;;;;4984015;28;20980;-96
2022/03/31 04:21:10;;;;;;;16.13;13.53;;;7.40;99.90;;;;;;4989204;28;20196;-94
2022/03/31 04:23:36;;;;;;;18.17;14.37;;;7.50;99.90;;;;;;4981809;28;20546;-93
2022/03/31 04:26:01;;;;;;;16.73;12.60;;;7.60;99.90;;;;;;4985926;28;20528;-91
2022/03/31 04:28:27;;;;;;;16.90;13.50;;;7.40;99.90;;;;;;4987572;28;20188;-93
2022/03/31 04:30:54;;;;;;;14.37;12.43;;;7.50;99.90;;;;;;4981721;28;20235;-94
2022/03/31 04:33:20;;;;;;;17.53;14.40;;;7.50;99.90;;;;;;4987883;28;20557;-95
2022/03/31 04:35:45;;;;;;;17.13;14.33;;;7.40;99.90;;;;;;4990753;28;21378;-94
2022/03/31 04:38:11;;;;;;;17.40;14.23;;;7.40;99.90;;;;;;4985810;28;20209;-94
2022/03/31 04:40:37;;;;;;;18.10;14.63;;;7.40;99.90;;;;;;4984172;28;21324;-94
2022/03/31 04:43:05;;;;;;;18.27;13.50;;;7.50;99.90;;;;;;4985552;28;20245;-94
2022/03/31 04:45:31;;;;;;;18.57;15.10;;;7.40;99.90;;;;;;4982479;28;20802;-93
2022/03/31 04:47:56;;;;;;;17.00;13.67;;;7.40;99.90;;;;;;4985465;28;20455;-93
2022/03/31 04:50:28;;;;;;;16.83;13.57;;;7.40;99.90;;;;;;4983961;28;20282;-94
2022/03/31 04:52:53;;;;;;;17.67;13.77;;;7.40;99.90;;;;;;4978264;28;20190;-93
2022/03/31 04:55:19;;;;;;;16.50;13.83;;;7.50;99.90;;;;;;4983241;28;20456;-94
2022/03/31 04:57:45;;;;;;;18.00;15.13;;;7.50;99.90;;;;;;4983067;28;20188;-94
2022/03/31 05:00:12;;;;;;;17.53;14.40;;;7.50;99.90;;;;;;4992017;28;20263;-94
2022/03/31 05:02:37;;;;;;;18.97;14.83;;;7.50;99.90;;;;;;4986177;28;20438;-88
2022/03/31 05:05:04;;;;;;;18.37;15.17;;;7.40;99.90;;;;;;5001194;28;20443;-92
2022/03/31 05:07:33;;;;;;;18.30;15.37;;;7.40;99.90;;;;;;4988264;28;20461;-91
2022/03/31 05:09:58;;;;;;;18.27;15.17;;;7.40;99.90;;;;;;4987679;28;21614;-92
2022/03/31 05:12:24;;;;;;;19.70;16.03;;;7.30;99.90;;;;;;5004442;28;20436;-92
2022/03/31 05:14:52;;;;;;;20.17;15.70;;;7.10;99.90;;;;;;4986882;28;20197;-95
2022/03/31 05:17:18;;;;;;;19.70;16.07;;;7.00;99.90;;;;;;4991076;28;20554;-93
2022/03/31 05:19:45;;;;;;;21.10;15.57;;;6.90;99.90;;;;;;4994875;28;20474;-95
2022/03/31 05:22:11;;;;;;;20.00;16.10;;;6.90;99.90;;;;;;5004190;28;20635;-93
2022/03/31 05:24:39;;;;;;;20.80;15.70;;;6.80;99.90;;;;;;4994184;28;21032;-94
2022/03/31 05:27:05;;;;;;;20.40;15.53;;;6.90;99.90;;;;;;4989529;28;20215;-93
2022/03/31 05:29:31;;;;;;;19.60;16.23;;;6.70;99.90;;;;;;5011531;28;20440;-93
2022/03/31 05:32:03;;;;;;;23.37;16.87;;;6.80;99.90;;;;;;4992517;28;20194;-93
2022/03/31 05:34:29;;;;;;;22.27;16.17;;;6.80;99.90;;;;;;4997000;28;20448;-93
2022/03/31 05:36:58;;;;;;;19.90;16.30;;;6.80;99.90;;;;;;5010692;28;20435;-96
2022/03/31 05:52:15;;;;;;;20.43;17.60;;;7.00;99.90;;;;;;4993519;28;20484;-94
2022/03/31 05:54:41;;;;;;;21.43;16.47;;;7.20;99.90;;;;;;4982945;28;20436;-92
2022/03/31 05:57:06;;;;;;;20.90;16.33;;;7.20;99.90;;;;;;4995335;28;20447;-94
2022/03/31 05:59:54;;;;;;;21.23;17.27;;;7.20;99.90;;;;;;4988131;28;20216;-94
2022/03/31 06:02:41;;;;;;;22.33;16.80;;;7.30;99.90;;;;;;4995196;28;20438;-94
2022/03/31 06:05:10;;;;;;;20.77;18.17;;;7.30;99.90;;;;;;4975837;28;20594;-95
2022/03/31 06:07:36;;;;;;;21.90;17.33;;;7.30;99.90;;;;;;5008404;28;20435;-94
2022/03/31 06:10:02;;;;;;;24.23;17.83;;;7.30;99.90;;;;;;4975742;28;20503;-94
2022/03/31 06:12:28;;;;;;;21.37;16.50;;;7.30;99.90;;;;;;4974877;28;20588;-94
2022/03/31 06:14:53;;;;;;;21.80;16.73;;;7.40;99.90;;;;;;5002833;28;20440;-94
2022/03/31 06:17:19;;;;;;;19.97;17.13;;;7.40;99.90;;;;;;4980589;28;20473;-93
2022/03/31 06:19:47;;;;;;;21.00;16.70;;;7.40;99.90;;;;;;4978217;28;20735;-93
2022/03/31 06:22:12;;;;;;;19.33;16.43;;;7.40;99.90;;;;;;4982660;28;20874;-93
2022/03/31 06:24:38;;;;;;;20.03;17.03;;;7.40;99.90;;;;;;4977367;28;20205;-93
2022/03/31 06:27:06;;;;;;;20.27;16.90;;;7.30;99.90;;;;;;4976661;28;20284;-92
2022/03/31 06:29:32;;;;;;;19.83;16.37;;;7.30;99.90;;;;;;4979615;28;20182;-92
2022/03/31 06:32:00;;;;;;;21.70;16.97;;;7.40;99.90;;;;;;4972938;28;20441;-92
2022/03/31 06:34:29;;;;;;;22.07;17.30;;;7.30;99.90;;;;;;4971401;28;20450;-92
2022/03/31 06:36:59;;;;;;;19.13;15.90;;;7.20;99.90;;;;;;4977646;28;20448;-94
2022/03/31 06:39:25;;;;;;;19.30;16.73;;;7.30;99.90;;;;;;4992763;28;20556;-93
2022/03/31 06:41:51;;;;;;;19.70;15.20;;;7.40;99.90;;;;;;4972415;28;20524;-95
2022/03/31 06:44:19;;;;;;;18.77;16.00;;;7.50;99.90;;;;;;4973029;28;20504;-93
2022/03/31 06:46:48;;;;;;;19.33;15.43;;;7.50;99.90;;;;;;4972924;28;20640;-92
2022/03/31 06:49:13;;;;;;;18.90;15.20;;;7.60;99.90;;;;;;4976246;28;20462;-93
2022/03/31 06:51:47;;;;;;;17.80;15.63;;;7.60;99.90;;;;;;4978067;28;20452;-94
2022/03/31 06:54:13;;;;;;;18.20;16.30;;;7.60;99.90;;;;;;4984345;28;20278;-94
2022/03/31 06:56:57;;;;;;;18.57;15.13;;;7.60;99.90;;;;;;4982288;28;20488;-94
2022/03/31 06:59:23;;;;;;;19.50;15.97;;;7.50;99.90;;;;;;4984582;28;20343;-93
2022/03/31 07:01:48;;;;;;;18.43;14.73;;;7.50;99.90;;;;;;4980928;28;20511;-94
2022/03/31 07:04:15;;;;;;;20.20;15.80;;;7.50;99.90;;;;;;4996716;28;20579;-94
2022/03/31 07:06:40;;;;;;;19.17;15.33;;;7.60;99.90;;;;;;4978237;28;20189;-94
2022/03/31 07:09:09;;;;;;;17.37;15.47;;;7.70;99.90;;;;;;4972135;28;20442;-93
2022/03/31 07:11:34;;;;;;;18.50;15.43;;;7.80;99.90;;;;;;4981518;28;20190;-93
2022/03/31 07:14:05;;;;;;;17.77;15.50;;;7.90;99.90;;;;;;4976823;28;20456;-93
2022/03/31 07:16:31;;;;;;;19.57;16.27;;;7.80;99.90;;;;;;4978101;28;20189;-94
2022/03/31 07:18:58;;;;;;;21.00;16.10;;;7.80;99.90;;;;;;4974532;28;20764;-94
2022/03/31 07:21:24;;;;;;;18.93;16.27;;;7.90;99.90;;;;;;4979057;28;20447;-93
2022/03/31 07:23:53;;;;;;;21.60;16.93;;;8.00;99.90;;;;;;4980470;28;21019;-93
2022/03/31 07:26:19;;;;;;;20.90;16.00;;;8.10;99.90;;;;;;5007358;28;20450;-94
2022/03/31 07:28:45;;;;;;;19.97;16.20;;;8.10;99.90;;;;;;4998599;28;20775;-92
2022/03/31 07:31:11;;;;;;;20.80;15.80;;;8.10;99.90;;;;;;4974922;28;20437;-94
2022/03/31 07:33:36;;;;;;;22.20;15.87;;;8.10;99.90;;;;;;4980441;28;20450;-94
2022/03/31 07:36:07;;;;;;;21.80;17.53;;;8.30;99.90;;;;;;4971502;28;20216;-86
2022/03/31 07:38:33;;;;;;;19.13;15.27;;;8.60;99.90;;;;;;4960415;28;20219;-87
2022/03/31 07:40:58;;;;;;;19.30;16.00;;;9.00;99.90;;;;;;4967958;28;21395;-88
2022/03/31 07:43:24;;;;;;;18.27;15.63;;;9.30;99.90;;;;;;4984043;28;20258;-88
2022/03/31 07:45:51;;;;;;;17.13;15.33;;;9.40;99.90;;;;;;4963608;28;20187;-88
2022/03/31 07:48:18;;;;;;;18.83;15.60;;;9.40;99.90;;;;;;4969016;28;20448;-89
2022/03/31 07:50:47;;;;;;;18.90;16.20;;;9.20;99.90;;;;;;4958947;28;20448;-88
2022/03/31 07:53:14;;;;;;;21.97;17.10;;;8.80;99.90;;;;;;4966325;28;20533;-90
2022/03/31 07:55:39;;;;;;;24.20;17.53;;;8.60;99.90;;;;;;4966427;28;20449;-89
2022/03/31 07:58:08;;;;;;;19.50;15.73;;;8.40;99.90;;;;;;4966439;28;20455;-89
2022/03/31 08:00:34;;;;;;;20.67;17.00;;;8.20;99.90;;;;;;4974401;28;20302;-89
2022/03/31 08:03:01;;;;;;;20.80;16.30;;;8.10;99.90;;;;;;4963741;28;20498;-89
2022/03/31 08:05:27;;;;;;;21.23;17.23;;;7.90;99.90;;;;;;4965399;28;20188;-88
2022/03/31 08:07:53;;;;;;;22.23;17.13;;;7.70;99.90;;;;;;4960591;28;20452;-89
2022/03/31 08:10:20;;;;;;;25.07;19.07;;;7.60;99.90;;;;;;4977281;28;20527;-89
2022/03/31 08:12:46;;;;;;;21.77;17.30;;;7.80;99.90;;;;;;4968401;28;20475;-89
2022/03/31 08:15:15;;;;;;;23.00;17.93;;;7.90;99.90;;;;;;4964176;28;20450;-91
2022/03/31 08:17:41;;;;;;;22.77;17.03;;;8.10;99.90;;;;;;4967399;28;20444;-90
2022/03/31 08:20:12;;;;;;;23.03;16.93;;;8.10;99.90;;;;;;4956893;28;20481;-90
2022/03/31 08:22:38;;;;;;;23.00;18.23;;;8.20;99.90;;;;;;4964089;28;20459;-89
2022/03/31 08:25:06;;;;;;;20.33;17.43;;;8.40;99.90;;;;;;4959830;28;20575;-89
2022/03/31 08:27:32;;;;;;;22.70;17.17;;;8.40;99.90;;;;;;4968826;28;20807;-88
2022/03/31 08:30:01;;;;;;;24.60;18.17;;;8.30;99.90;;;;;;4995881;28;21013;-90
2022/03/31 08:32:27;;;;;;;27.83;18.00;;;8.30;99.90;;;;;;4962293;28;20475;-89
2022/03/31 08:34:53;;;;;;;26.50;19.43;;;8.40;99.90;;;;;;4964201;28;20629;-90
2022/03/31 08:37:19;;;;;;;23.63;17.50;;;8.50;99.90;;;;;;4970511;28;20971;-90
2022/03/31 08:39:44;;;;;;;22.40;17.83;;;8.40;99.90;;;;;;4969934;28;20721;-88
2022/03/31 08:42:14;;;;;;;21.77;17.80;;;8.60;99.90;;;;;;4971179;28;20663;-89
2022/03/31 08:44:50;;;;;;;22.13;17.40;;;8.50;99.90;;;;;;4978433;28;20218;-92
2022/03/31 08:47:16;;;;;;;21.50;17.20;;;8.40;99.90;;;;;;4972119;28;20951;-87
2022/03/31 08:49:43;;;;;;;24.37;18.47;;;8.40;99.90;;;;;;4964958;28;20814;-91
2022/03/31 08:52:10;;;;;;;24.97;19.20;;;8.50;99.90;;;;;;4964967;28;20539;-90
2022/03/31 08:54:36;;;;;;;26.00;18.23;;;8.60;99.90;;;;;;4967424;28;20447;-90
2022/03/31 08:57:02;;;;;;;24.73;18.70;;;8.50;99.90;;;;;;4966447;28;20444;-90
2022/03/31 08:59:28;;;;;;;22.37;17.43;;;8.70;99.90;;;;;;4973417;28;20856;-91
2022/03/31 09:01:53;;;;;;;23.07;16.73;;;8.80;99.90;;;;;;4954154;28;20220;-91
2022/03/31 09:04:29;;;;;;;21.37;18.90;;;9.00;99.90;;;;;;4967460;28;20551;-92
2022/03/31 09:07:02;;;;;;;22.97;18.40;;;8.90;99.90;;;;;;4962712;28;20185;-91
2022/03/31 09:09:30;;;;;;;24.93;18.73;;;8.80;99.90;;;;;;4993512;28;20570;-91
2022/03/31 09:12:04;;;;;;;22.53;17.40;;;8.70;99.90;;;;;;4967193;28;20431;-91
2022/03/31 09:14:32;;;;;;;24.80;18.30;;;8.90;99.90;;;;;;4971740;28;20495;-91
2022/03/31 09:17:13;;;;;;;25.90;19.47;;;8.90;99.90;;;;;;4992673;28;20445;-91
2022/03/31 09:19:39;;;;;;;28.33;18.70;;;8.80;99.90;;;;;;4975265;28;20562;-91
2022/03/31 09:22:05;;;;;;;24.53;18.83;;;9.00;99.90;;;;;;4971970;28;20562;-89
2022/03/31 09:24:34;;;;;;;25.23;20.20;;;9.00;99.90;;;;;;4974201;28;20496;-91
2022/03/31 09:27:04;;;;;;;36.03;25.10;;;9.10;99.90;;;;;;4968586;28;20795;-90
2022/03/31 09:29:45;;;;;;;31.00;23.70;;;8.70;99.90;;;;;;4999956;28;20448;-90
2022/03/31 09:32:12;;;;;;;30.97;22.27;;;8.70;99.90;;;;;;4966476;28;20577;-91
2022/03/31 09:34:44;;;;;;;27.60;21.93;;;8.70;99.90;;;;;;4967815;28;20439;-90
2022/03/31 09:37:12;;;;;;;24.70;19.70;;;9.00;99.90;;;;;;4967419;28;20534;-92
2022/03/31 09:39:40;;;;;;;26.87;20.23;;;9.20;99.90;;;;;;4960685;28;20476;-90
2022/03/31 09:42:14;;;;;;;25.10;19.80;;;9.50;99.90;;;;;;4975271;28;21800;-90
2022/03/31 09:44:57;;;;;;;27.20;20.60;;;9.60;99.90;;;;;;4988786;28;20470;-90
2022/03/31 09:47:23;;;;;;;26.97;19.43;;;9.90;99.90;;;;;;4968441;28;20599;-91
2022/03/31 09:49:58;;;;;;;26.03;18.73;;;9.90;99.90;;;;;;4967843;28;20550;-92
2022/03/31 09:52:24;;;;;;;22.67;18.90;;;10.00;99.90;;;;;;4976975;28;20229;-91
2022/03/31 09:54:50;;;;;;;26.80;19.07;;;10.40;99.90;;;;;;4966162;28;20802;-91
2022/03/31 09:57:20;;;;;;;25.67;19.10;;;10.80;99.90;;;;;;4969125;28;20520;-90
2022/03/31 09:59:52;;;;;;;26.73;19.37;;;11.20;99.90;;;;;;4986963;28;20667;-90
2022/03/31 10:02:20;;;;;;;27.73;19.87;;;11.20;99.90;;;;;;4973801;28;20444;-89
2022/03/31 10:04:46;;;;;;;29.27;19.67;;;10.60;99.90;;;;;;4967151;28;20447;-90
2022/03/31 10:07:13;;;;;;;28.23;19.67;;;10.50;99.90;;;;;;4968308;28;20660;-90
2022/03/31 10:09:42;;;;;;;28.63;19.97;;;10.30;99.90;;;;;;4964251;28;20448;-91
2022/03/31 10:12:35;;;;;;;29.43;19.23;;;10.40;99.90;;;;;;4950632;28;21793;-90
2022/03/31 10:15:09;;;;;;;26.80;19.37;;;10.40;99.90;;;;;;4964308;28;20448;-92
2022/03/31 10:17:37;;;;;;;28.83;19.73;;;10.40;99.90;;;;;;4955742;28;20470;-90
2022/03/31 10:20:08;;;;;;;26.20;18.77;;;10.50;99.90;;;;;;4973796;28;20516;-89
2022/03/31 10:25:20;;;;;;;21.33;18.07;;;10.50;99.90;;;;;;4973104;28;20523;-90
2022/03/31 10:27:46;;;;;;;25.13;18.90;;;10.70;99.90;;;;;;4949977;28;21051;-89
2022/03/31 10:30:25;;;;;;;27.93;21.03;;;10.60;99.90;;;;;;4955003;28;20522;-90
2022/03/31 10:33:02;;;;;;;24.30;18.77;;;10.60;99.90;;;;;;4959303;28;21108;-92
2022/03/31 10:35:32;;;;;;;22.80;17.80;;;10.80;99.90;;;;;;4952907;28;20452;-91
2022/03/31 10:38:10;;;;;;;21.93;17.37;;;11.00;99.90;;;;;;4960855;28;20532;-92
2022/03/31 10:44:26;;;;;;;28.33;20.17;;;10.90;99.90;;;;;;4981968;28;20480;-94
2022/03/31 10:47:31;;;;;;;24.33;18.90;;;10.90;99.90;;;;;;4979339;28;21636;-95
2022/03/31 10:49:57;;;;;;;27.60;18.40;;;11.40;99.90;;;;;;4974568;28;20441;-96
2022/03/31 10:52:23;;;;;;;27.03;18.70;;;11.80;99.90;;;;;;4988530;28;20503;-95
2022/03/31 10:54:52;;;;;;;23.07;17.50;;;11.70;99.90;;;;;;4966650;28;20449;-95
2022/03/31 10:57:53;;;;;;;22.50;17.23;;;11.70;99.90;;;;;;5000124;28;20602;-95
2022/03/31 11:00:21;;;;;;;25.87;19.20;;;11.60;99.90;;;;;;4980913;28;20492;-93
2022/03/31 11:02:49;;;;;;;27.17;19.83;;;11.50;99.90;;;;;;4972656;28;20926;-92
2022/03/31 11:05:15;;;;;;;19.90;16.83;;;11.70;99.90;;;;;;4983903;28;20976;-92
2022/03/31 11:07:43;;;;;;;24.33;18.27;;;12.20;99.90;;;;;;4971472;28;20432;-93
2022/03/31 11:10:13;;;;;;;25.33;18.90;;;12.10;99.90;;;;;;4984771;28;20193;-94
2022/03/31 11:12:43;;;;;;;26.73;19.50;;;11.80;99.90;;;;;;4969695;28;20482;-92
2022/03/31 11:15:15;;;;;;;27.37;17.70;;;11.80;99.90;;;;;;4968385;28;20442;-87
2022/03/31 11:17:42;;;;;;;23.50;18.80;;;11.70;99.90;;;;;;4971514;28;20487;-87
2022/03/31 11:20:24;;;;;;;26.17;19.40;;;11.70;99.90;;;;;;4972184;28;20819;-88
2022/03/31 11:22:54;;;;;;;28.20;20.13;;;11.50;99.90;;;;;;4967997;28;20790;-87
2022/03/31 11:25:21;;;;;;;25.07;18.03;;;11.30;99.90;;;;;;4963247;28;20438;-88
2022/03/31 11:27:48;;;;;;;25.57;18.40;;;11.20;99.90;;;;;;4947693;28;20455;-88
2022/03/31 11:30:18;;;;;;;26.63;17.90;;;11.40;99.90;;;;;;4949600;28;20442;-88
2022/03/31 11:32:44;;;;;;;24.30;17.23;;;11.50;99.90;;;;;;4986526;28;23002;-88
2022/03/31 11:35:18;;;;;;;26.10;17.80;;;11.50;99.90;;;;;;4962649;28;20436;-88
2022/03/31 11:37:48;;;;;;;28.00;18.30;;;11.50;99.90;;;;;;4962046;28;20441;-89
2022/03/31 11:40:21;;;;;;;25.80;19.00;;;11.50;99.90;;;;;;4964248;28;20545;-87
2022/03/31 11:42:48;;;;;;;24.90;18.13;;;11.90;99.90;;;;;;4951291;28;20440;-88
2022/03/31 11:45:46;;;;;;;27.57;19.30;;;12.30;99.90;;;;;;4982935;28;20598;-88
2022/03/31 11:48:16;;;;;;;25.40;18.73;;;12.60;99.90;;;;;;4959743;28;20964;-89
2022/03/31 11:50:58;;;;;;;25.27;19.07;;;12.80;99.90;;;;;;4966667;28;20973;-87
2022/03/31 11:53:28;;;;;;;26.60;18.73;;;13.10;99.90;;;;;;4947518;28;20444;-89
2022/03/31 11:55:58;;;;;;;26.80;18.80;;;12.40;99.90;;;;;;4961195;28;21064;-87
2022/03/31 11:58:25;;;;;;;26.07;18.23;;;12.00;99.90;;;;;;4942053;28;20508;-86
2022/03/31 12:00:52;;;;;;;27.70;18.70;;;12.10;99.90;;;;;;4949872;28;20454;-88
2022/03/31 12:03:18;;;;;;;25.37;19.53;;;12.10;99.90;;;;;;4958272;28;20436;-88
2022/03/31 12:06:04;;;;;;;21.73;17.20;;;12.10;99.90;;;;;;4943414;28;20475;-88
2022/03/31 12:08:31;;;;;;;22.73;15.67;;;12.60;99.90;;;;;;4954927;28;20438;-87
2022/03/31 12:11:00;;;;;;;21.00;16.13;;;13.10;99.90;;;;;;4953512;28;21208;-88
2022/03/31 12:14:01;;;;;;;26.10;15.77;;;13.30;99.90;;;;;;4959231;28;20458;-91
2022/03/31 12:16:49;;;;;;;22.33;17.27;;;13.70;99.90;;;;;;4944505;28;20463;-91
2022/03/31 12:19:15;;;;;;;23.20;18.47;;;13.70;99.90;;;;;;4971197;28;20514;-89
2022/03/31 12:21:46;;;;;;;19.73;16.60;;;13.30;99.90;;;;;;4976302;28;20428;-90
2022/03/31 12:24:12;;;;;;;21.03;17.17;;;13.50;99.90;;;;;;4983075;28;20453;-91
2022/03/31 12:26:40;;;;;;;21.07;15.60;;;13.30;99.90;;;;;;4972911;28;20451;-91
2022/03/31 12:29:16;;;;;;;22.43;17.47;;;13.10;99.90;;;;;;4956631;28;20451;-89
2022/03/31 12:31:43;;;;;;;25.83;17.50;;;13.00;99.90;;;;;;4957864;28;20448;-90
2022/03/31 12:34:14;;;;;;;23.30;17.53;;;13.00;99.90;;;;;;4955997;28;21739;-92
2022/03/31 12:36:42;;;;;;;22.10;17.20;;;12.60;99.90;;;;;;4953743;28;20440;-88
2022/03/31 12:39:08;;;;;;;21.33;16.30;;;12.70;99.90;;;;;;4944405;28;20479;-87
2022/03/31 12:41:37;;;;;;;22.77;17.17;;;12.70;99.90;;;;;;4952239;28;20495;-89
2022/03/31 12:44:16;;;;;;;19.43;15.70;;;12.60;99.90;;;;;;4949046;28;20559;-90
2022/03/31 12:46:45;;;;;;;22.57;17.70;;;12.80;99.90;;;;;;4958084;28;20560;-91
2022/03/31 12:49:13;;;;;;;22.30;17.67;;;13.30;99.90;;;;;;4959943;28;20656;-90
2022/03/31 12:51:46;;;;;;;20.70;17.50;;;13.10;99.90;;;;;;4956496;28;20479;-92
2022/03/31 12:54:22;;;;;;;24.33;18.17;;;13.00;99.90;;;;;;4968381;28;20590;-92
2022/03/31 12:56:49;;;;;;;22.57;17.97;;;12.80;99.90;;;;;;4967959;28;20444;-90
2022/03/31 12:59:24;;;;;;;22.50;18.50;;;12.80;99.90;;;;;;4976080;28;20498;-91
2022/03/31 13:02:07;;;;;;;23.23;18.00;;;12.70;99.90;;;;;;4949137;28;20470;-90
2022/03/31 13:04:36;;;;;;;22.43;18.37;;;13.00;99.90;;;;;;4948701;28;22621;-89